sensor_id;sensor_type;location;lat;lon;timestamp;P1;durP1;ratioP1;P2;durP2;ratioP2
77055;SDS011;67471;44.918;8.614;2023-07-29T00:00:58;6.38;;;3.22;;
77055;SDS011;67471;44.918;8.614;2023-07-29T00:04:03;5.65;;;3.20;;
77055;SDS011;67471;44.918;8.614;2023-07-29T00:07:08;5.85;;;3.35;;
77055;SDS011;67471;44.918;8.614;2023-07-29T00:10:11;6.10;;;3.53;;
77055;SDS011;67471;44.918;8.614;2023-07-29T00:13:15;8.35;;;3.20;;
77055;SDS011;67471;44.918;8.614;2023-07-29T00:16:19;5.88;;;3.20;;
77055;SDS011;67471;44.918;8.614;2023-07-29T00:19:25;5.70;;;3.20;;
77055;SDS011;67471;44.918;8.614;2023-07-29T00:22:29;3.70;;;2.97;;
77055;SDS011;67471;44.918;8.614;2023-07-29T00:25:33;5.88;;;3.03;;
77055;SDS011;67471;44.918;8.614;2023-07-29T00:28:37;6.10;;;3.50;;
77055;SDS011;67471;44.918;8.614;2023-07-29T00:31:41;5.50;;;3.50;;
77055;SDS011;67471;44.918;8.614;2023-07-29T00:34:45;6.15;;;3.35;;
77055;SDS011;67471;44.918;8.614;2023-07-29T00:37:48;5.93;;;3.15;;
77055;SDS011;67471;44.918;8.614;2023-07-29T00:40:52;7.82;;;3.30;;
77055;SDS011;67471;44.918;8.614;2023-07-29T00:43:56;6.93;;;2.90;;
77055;SDS011;67471;44.918;8.614;2023-07-29T00:47:00;6.40;;;2.78;;
77055;SDS011;67471;44.918;8.614;2023-07-29T00:50:06;5.97;;;2.92;;
77055;SDS011;67471;44.918;8.614;2023-07-29T00:53:11;6.40;;;3.00;;
77055;SDS011;67471;44.918;8.614;2023-07-29T00:56:15;7.70;;;3.10;;
77055;SDS011;67471;44.918;8.614;2023-07-29T00:59:20;6.15;;;2.95;;
77055;SDS011;67471;44.918;8.614;2023-07-29T01:02:24;5.03;;;3.08;;
77055;SDS011;67471;44.918;8.614;2023-07-29T01:05:36;6.95;;;2.80;;
77055;SDS011;67471;44.918;8.614;2023-07-29T01:09:14;6.40;;;3.20;;
77055;SDS011;67471;44.918;8.614;2023-07-29T01:12:46;6.43;;;3.03;;
77055;SDS011;67471;44.918;8.614;2023-07-29T01:16:09;6.25;;;2.95;;
77055;SDS011;67471;44.918;8.614;2023-07-29T01:23:00;9.27;;;3.67;;
77055;SDS011;67471;44.918;8.614;2023-07-29T01:26:04;7.30;;;3.15;;
77055;SDS011;67471;44.918;8.614;2023-07-29T01:29:07;4.97;;;2.95;;
77055;SDS011;67471;44.918;8.614;2023-07-29T01:32:11;6.25;;;2.90;;
77055;SDS011;67471;44.918;8.614;2023-07-29T01:38:57;4.03;;;2.75;;
77055;SDS011;67471;44.918;8.614;2023-07-29T01:42:07;5.68;;;2.97;;
77055;SDS011;67471;44.918;8.614;2023-07-29T01:45:11;5.57;;;3.70;;
77055;SDS011;67471;44.918;8.614;2023-07-29T01:48:15;7.38;;;3.22;;
77055;SDS011;67471;44.918;8.614;2023-07-29T01:51:19;7.47;;;3.80;;
77055;SDS011;67471;44.918;8.614;2023-07-29T01:54:25;7.18;;;3.58;;
77055;SDS011;67471;44.918;8.614;2023-07-29T01:57:28;5.72;;;3.78;;
77055;SDS011;67471;44.918;8.614;2023-07-29T02:00:32;8.15;;;4.05;;
77055;SDS011;67471;44.918;8.614;2023-07-29T02:03:36;6.10;;;3.40;;
77055;SDS011;67471;44.918;8.614;2023-07-29T02:06:42;5.32;;;3.58;;
77055;SDS011;67471;44.918;8.614;2023-07-29T02:09:46;8.13;;;3.42;;
77055;SDS011;67471;44.918;8.614;2023-07-29T02:12:50;5.20;;;3.53;;
77055;SDS011;67471;44.918;8.614;2023-07-29T02:15:54;6.43;;;3.17;;
77055;SDS011;67471;44.918;8.614;2023-07-29T02:18:58;7.25;;;3.90;;
77055;SDS011;67471;44.918;8.614;2023-07-29T02:22:02;6.45;;;3.80;;
77055;SDS011;67471;44.918;8.614;2023-07-29T02:25:06;7.00;;;4.28;;
77055;SDS011;67471;44.918;8.614;2023-07-29T02:28:10;7.10;;;3.35;;
77055;SDS011;67471;44.918;8.614;2023-07-29T02:31:15;4.32;;;2.97;;
77055;SDS011;67471;44.918;8.614;2023-07-29T02:34:20;8.32;;;3.55;;
77055;SDS011;67471;44.918;8.614;2023-07-29T02:37:24;8.82;;;3.50;;
77055;SDS011;67471;44.918;8.614;2023-07-29T02:40:28;6.13;;;3.63;;
77055;SDS011;67471;44.918;8.614;2023-07-29T02:43:36;6.57;;;3.80;;
77055;SDS011;67471;44.918;8.614;2023-07-29T02:46:39;11.13;;;3.90;;
77055;SDS011;67471;44.918;8.614;2023-07-29T02:49:43;7.00;;;3.97;;
77055;SDS011;67471;44.918;8.614;2023-07-29T02:52:47;7.32;;;4.30;;
77055;SDS011;67471;44.918;8.614;2023-07-29T02:55:51;8.57;;;3.92;;
77055;SDS011;67471;44.918;8.614;2023-07-29T02:58:57;6.43;;;3.47;;
77055;SDS011;67471;44.918;8.614;2023-07-29T03:02:01;6.38;;;4.13;;
77055;SDS011;67471;44.918;8.614;2023-07-29T03:05:05;10.00;;;4.50;;
77055;SDS011;67471;44.918;8.614;2023-07-29T03:08:09;5.85;;;3.95;;
77055;SDS011;67471;44.918;8.614;2023-07-29T03:11:13;7.63;;;4.32;;
77055;SDS011;67471;44.918;8.614;2023-07-29T03:14:18;8.25;;;5.18;;
77055;SDS011;67471;44.918;8.614;2023-07-29T03:17:22;7.45;;;4.82;;
77055;SDS011;67471;44.918;8.614;2023-07-29T03:20:26;6.88;;;4.25;;
77055;SDS011;67471;44.918;8.614;2023-07-29T03:23:30;7.32;;;4.10;;
77055;SDS011;67471;44.918;8.614;2023-07-29T03:26:35;10.43;;;4.22;;
77055;SDS011;67471;44.918;8.614;2023-07-29T03:29:39;7.55;;;4.78;;
77055;SDS011;67471;44.918;8.614;2023-07-29T03:32:43;6.50;;;4.03;;
77055;SDS011;67471;44.918;8.614;2023-07-29T03:35:51;12.23;;;4.43;;
77055;SDS011;67471;44.918;8.614;2023-07-29T03:38:55;6.45;;;4.10;;
77055;SDS011;67471;44.918;8.614;2023-07-29T03:42:02;7.18;;;3.38;;
77055;SDS011;67471;44.918;8.614;2023-07-29T03:45:06;9.25;;;4.18;;
77055;SDS011;67471;44.918;8.614;2023-07-29T03:48:10;7.15;;;3.97;;
77055;SDS011;67471;44.918;8.614;2023-07-29T03:51:14;6.35;;;3.88;;
77055;SDS011;67471;44.918;8.614;2023-07-29T03:54:18;6.75;;;4.32;;
77055;SDS011;67471;44.918;8.614;2023-07-29T03:57:22;7.82;;;4.20;;
77055;SDS011;67471;44.918;8.614;2023-07-29T04:00:26;5.60;;;3.97;;
77055;SDS011;67471;44.918;8.614;2023-07-29T04:03:31;7.60;;;5.85;;
77055;SDS011;67471;44.918;8.614;2023-07-29T04:06:37;7.03;;;4.72;;
77055;SDS011;67471;44.918;8.614;2023-07-29T04:09:40;9.93;;;3.88;;
77055;SDS011;67471;44.918;8.614;2023-07-29T04:12:47;8.75;;;4.90;;
77055;SDS011;67471;44.918;8.614;2023-07-29T04:15:50;5.97;;;4.57;;
77055;SDS011;67471;44.918;8.614;2023-07-29T04:18:54;7.07;;;5.00;;
77055;SDS011;67471;44.918;8.614;2023-07-29T04:21:58;7.68;;;5.22;;
77055;SDS011;67471;44.918;8.614;2023-07-29T04:25:03;7.53;;;5.70;;
77055;SDS011;67471;44.918;8.614;2023-07-29T04:28:07;9.10;;;5.78;;
77055;SDS011;67471;44.918;8.614;2023-07-29T04:31:11;7.22;;;5.18;;
77055;SDS011;67471;44.918;8.614;2023-07-29T04:34:15;9.45;;;5.38;;
77055;SDS011;67471;44.918;8.614;2023-07-29T04:37:19;6.78;;;5.68;;
77055;SDS011;67471;44.918;8.614;2023-07-29T04:40:22;9.20;;;5.13;;
77055;SDS011;67471;44.918;8.614;2023-07-29T04:43:27;9.85;;;5.10;;
77055;SDS011;67471;44.918;8.614;2023-07-29T04:46:31;8.60;;;6.32;;
77055;SDS011;67471;44.918;8.614;2023-07-29T04:49:35;8.30;;;5.45;;
77055;SDS011;67471;44.918;8.614;2023-07-29T04:52:39;8.27;;;5.00;;
77055;SDS011;67471;44.918;8.614;2023-07-29T04:55:42;11.52;;;5.72;;
77055;SDS011;67471;44.918;8.614;2023-07-29T04:58:46;10.00;;;5.38;;
77055;SDS011;67471;44.918;8.614;2023-07-29T05:01:50;8.48;;;5.07;;
77055;SDS011;67471;44.918;8.614;2023-07-29T05:04:54;9.20;;;4.88;;
77055;SDS011;67471;44.918;8.614;2023-07-29T05:07:58;10.55;;;5.50;;
77055;SDS011;67471;44.918;8.614;2023-07-29T05:11:02;6.65;;;4.35;;
77055;SDS011;67471;44.918;8.614;2023-07-29T05:14:06;7.90;;;4.57;;
77055;SDS011;67471;44.918;8.614;2023-07-29T05:17:13;10.13;;;4.60;;
77055;SDS011;67471;44.918;8.614;2023-07-29T05:20:16;10.98;;;4.80;;
77055;SDS011;67471;44.918;8.614;2023-07-29T05:23:20;7.00;;;4.18;;
77055;SDS011;67471;44.918;8.614;2023-07-29T05:26:24;8.48;;;4.22;;
77055;SDS011;67471;44.918;8.614;2023-07-29T05:29:28;7.22;;;4.55;;
77055;SDS011;67471;44.918;8.614;2023-07-29T05:32:32;9.95;;;4.70;;
77055;SDS011;67471;44.918;8.614;2023-07-29T05:35:36;6.72;;;4.25;;
77055;SDS011;67471;44.918;8.614;2023-07-29T05:38:41;8.93;;;4.40;;
77055;SDS011;67471;44.918;8.614;2023-07-29T05:41:45;9.73;;;4.47;;
77055;SDS011;67471;44.918;8.614;2023-07-29T05:44:49;10.18;;;4.65;;
77055;SDS011;67471;44.918;8.614;2023-07-29T05:47:54;7.90;;;4.18;;
77055;SDS011;67471;44.918;8.614;2023-07-29T05:50:58;6.47;;;4.00;;
77055;SDS011;67471;44.918;8.614;2023-07-29T05:54:01;13.48;;;3.78;;
77055;SDS011;67471;44.918;8.614;2023-07-29T05:57:05;9.18;;;4.13;;
77055;SDS011;67471;44.918;8.614;2023-07-29T06:00:09;6.93;;;3.85;;
77055;SDS011;67471;44.918;8.614;2023-07-29T06:03:19;5.15;;;3.20;;
77055;SDS011;67471;44.918;8.614;2023-07-29T06:06:23;5.40;;;4.45;;
77055;SDS011;67471;44.918;8.614;2023-07-29T06:09:27;7.60;;;4.15;;
77055;SDS011;67471;44.918;8.614;2023-07-29T06:12:30;7.20;;;3.45;;
77055;SDS011;67471;44.918;8.614;2023-07-29T06:15:34;5.80;;;3.78;;
77055;SDS011;67471;44.918;8.614;2023-07-29T06:18:38;9.88;;;4.07;;
77055;SDS011;67471;44.918;8.614;2023-07-29T06:21:42;8.43;;;4.22;;
77055;SDS011;67471;44.918;8.614;2023-07-29T06:24:45;8.45;;;3.55;;
77055;SDS011;67471;44.918;8.614;2023-07-29T06:27:49;9.35;;;3.60;;
77055;SDS011;67471;44.918;8.614;2023-07-29T06:30:53;7.85;;;3.10;;
77055;SDS011;67471;44.918;8.614;2023-07-29T06:33:57;6.60;;;2.70;;
77055;SDS011;67471;44.918;8.614;2023-07-29T06:37:00;10.07;;;3.35;;
77055;SDS011;67471;44.918;8.614;2023-07-29T06:40:04;7.35;;;2.90;;
77055;SDS011;67471;44.918;8.614;2023-07-29T06:43:08;6.20;;;2.70;;
77055;SDS011;67471;44.918;8.614;2023-07-29T06:46:14;5.15;;;2.40;;
77055;SDS011;67471;44.918;8.614;2023-07-29T06:49:18;5.28;;;2.75;;
77055;SDS011;67471;44.918;8.614;2023-07-29T06:52:22;6.97;;;3.10;;
77055;SDS011;67471;44.918;8.614;2023-07-29T06:55:26;12.20;;;5.45;;
77055;SDS011;67471;44.918;8.614;2023-07-29T06:58:29;11.05;;;4.75;;
77055;SDS011;67471;44.918;8.614;2023-07-29T07:01:33;8.43;;;4.10;;
77055;SDS011;67471;44.918;8.614;2023-07-29T07:04:40;8.33;;;3.43;;
77055;SDS011;67471;44.918;8.614;2023-07-29T07:07:44;8.13;;;3.40;;
77055;SDS011;67471;44.918;8.614;2023-07-29T07:10:47;7.57;;;3.90;;
77055;SDS011;67471;44.918;8.614;2023-07-29T07:13:51;9.43;;;3.78;;
77055;SDS011;67471;44.918;8.614;2023-07-29T07:16:55;12.63;;;5.10;;
77055;SDS011;67471;44.918;8.614;2023-07-29T07:19:59;7.90;;;4.20;;
77055;SDS011;67471;44.918;8.614;2023-07-29T07:23:03;21.30;;;13.50;;
77055;SDS011;67471;44.918;8.614;2023-07-29T07:26:08;19.98;;;10.52;;
77055;SDS011;67471;44.918;8.614;2023-07-29T07:29:12;13.32;;;9.75;;
77055;SDS011;67471;44.918;8.614;2023-07-29T07:32:18;10.45;;;7.20;;
77055;SDS011;67471;44.918;8.614;2023-07-29T07:35:22;12.73;;;9.23;;
77055;SDS011;67471;44.918;8.614;2023-07-29T07:38:26;9.75;;;5.85;;
77055;SDS011;67471;44.918;8.614;2023-07-29T07:41:29;6.43;;;2.92;;
77055;SDS011;67471;44.918;8.614;2023-07-29T07:44:33;6.38;;;3.10;;
77055;SDS011;67471;44.918;8.614;2023-07-29T07:47:40;4.57;;;2.33;;
77055;SDS011;67471;44.918;8.614;2023-07-29T07:50:44;5.97;;;2.53;;
77055;SDS011;67471;44.918;8.614;2023-07-29T07:53:48;6.35;;;2.65;;
77055;SDS011;67471;44.918;8.614;2023-07-29T07:56:51;5.07;;;2.72;;
77055;SDS011;67471;44.918;8.614;2023-07-29T07:59:55;5.95;;;2.60;;
77055;SDS011;67471;44.918;8.614;2023-07-29T08:02:59;3.38;;;2.22;;
77055;SDS011;67471;44.918;8.614;2023-07-29T08:06:04;5.32;;;2.75;;
77055;SDS011;67471;44.918;8.614;2023-07-29T08:09:08;6.68;;;2.30;;
77055;SDS011;67471;44.918;8.614;2023-07-29T08:12:11;5.03;;;2.55;;
77055;SDS011;67471;44.918;8.614;2023-07-29T08:15:15;9.05;;;2.40;;
77055;SDS011;67471;44.918;8.614;2023-07-29T08:18:22;6.28;;;2.70;;
77055;SDS011;67471;44.918;8.614;2023-07-29T08:21:26;6.32;;;2.60;;
77055;SDS011;67471;44.918;8.614;2023-07-29T08:24:30;5.28;;;2.30;;
77055;SDS011;67471;44.918;8.614;2023-07-29T08:27:34;7.13;;;2.25;;
77055;SDS011;67471;44.918;8.614;2023-07-29T08:30:37;7.40;;;2.38;;
77055;SDS011;67471;44.918;8.614;2023-07-29T08:33:41;7.60;;;2.47;;
77055;SDS011;67471;44.918;8.614;2023-07-29T08:36:45;8.50;;;2.45;;
77055;SDS011;67471;44.918;8.614;2023-07-29T08:39:49;4.78;;;2.50;;
77055;SDS011;67471;44.918;8.614;2023-07-29T08:42:55;8.73;;;2.58;;
77055;SDS011;67471;44.918;8.614;2023-07-29T08:46:01;5.78;;;2.50;;
77055;SDS011;67471;44.918;8.614;2023-07-29T08:49:05;5.15;;;2.63;;
77055;SDS011;67471;44.918;8.614;2023-07-29T08:52:09;5.65;;;2.42;;
77055;SDS011;67471;44.918;8.614;2023-07-29T08:55:14;4.70;;;2.55;;
77055;SDS011;67471;44.918;8.614;2023-07-29T08:58:18;6.82;;;2.47;;
77055;SDS011;67471;44.918;8.614;2023-07-29T09:01:21;6.38;;;2.50;;
77055;SDS011;67471;44.918;8.614;2023-07-29T09:04:25;4.72;;;2.80;;
77055;SDS011;67471;44.918;8.614;2023-07-29T09:07:29;8.30;;;3.25;;
77055;SDS011;67471;44.918;8.614;2023-07-29T09:10:36;5.20;;;2.97;;
77055;SDS011;67471;44.918;8.614;2023-07-29T09:13:40;4.88;;;2.58;;
77055;SDS011;67471;44.918;8.614;2023-07-29T09:16:44;6.95;;;2.50;;
77055;SDS011;67471;44.918;8.614;2023-07-29T09:19:51;5.07;;;2.40;;
77055;SDS011;67471;44.918;8.614;2023-07-29T09:22:55;5.97;;;2.80;;
77055;SDS011;67471;44.918;8.614;2023-07-29T09:26:02;4.83;;;2.60;;
77055;SDS011;67471;44.918;8.614;2023-07-29T09:29:06;3.03;;;2.30;;
77055;SDS011;67471;44.918;8.614;2023-07-29T09:32:19;6.20;;;2.22;;
77055;SDS011;67471;44.918;8.614;2023-07-29T09:35:25;6.78;;;2.65;;
77055;SDS011;67471;44.918;8.614;2023-07-29T09:38:31;7.47;;;2.58;;
77055;SDS011;67471;44.918;8.614;2023-07-29T09:41:35;4.13;;;2.80;;
77055;SDS011;67471;44.918;8.614;2023-07-29T09:44:39;4.25;;;2.65;;
77055;SDS011;67471;44.918;8.614;2023-07-29T09:47:46;4.75;;;2.88;;
77055;SDS011;67471;44.918;8.614;2023-07-29T09:50:50;5.40;;;2.85;;
77055;SDS011;67471;44.918;8.614;2023-07-29T09:53:53;3.88;;;2.60;;
77055;SDS011;67471;44.918;8.614;2023-07-29T09:56:57;7.75;;;2.85;;
77055;SDS011;67471;44.918;8.614;2023-07-29T10:00:01;5.85;;;2.90;;
77055;SDS011;67471;44.918;8.614;2023-07-29T10:03:08;6.10;;;2.50;;
77055;SDS011;67471;44.918;8.614;2023-07-29T10:06:12;5.82;;;2.72;;
77055;SDS011;67471;44.918;8.614;2023-07-29T10:09:18;6.53;;;2.75;;
77055;SDS011;67471;44.918;8.614;2023-07-29T10:12:24;5.22;;;3.00;;
77055;SDS011;67471;44.918;8.614;2023-07-29T10:15:28;4.20;;;2.67;;
77055;SDS011;67471;44.918;8.614;2023-07-29T10:18:33;5.82;;;3.33;;
77055;SDS011;67471;44.918;8.614;2023-07-29T10:21:38;4.90;;;2.90;;
77055;SDS011;67471;44.918;8.614;2023-07-29T10:24:42;6.60;;;3.10;;
77055;SDS011;67471;44.918;8.614;2023-07-29T10:27:47;5.13;;;2.75;;
77055;SDS011;67471;44.918;8.614;2023-07-29T10:30:56;8.00;;;3.15;;
77055;SDS011;67471;44.918;8.614;2023-07-29T10:34:00;6.80;;;3.10;;
77055;SDS011;67471;44.918;8.614;2023-07-29T10:37:04;5.43;;;3.00;;
77055;SDS011;67471;44.918;8.614;2023-07-29T10:40:09;5.95;;;3.03;;
77055;SDS011;67471;44.918;8.614;2023-07-29T10:43:18;5.38;;;2.90;;
77055;SDS011;67471;44.918;8.614;2023-07-29T10:46:35;7.30;;;2.92;;
77055;SDS011;67471;44.918;8.614;2023-07-29T10:49:45;5.30;;;2.58;;
77055;SDS011;67471;44.918;8.614;2023-07-29T10:52:51;4.47;;;2.75;;
77055;SDS011;67471;44.918;8.614;2023-07-29T10:55:55;5.60;;;2.80;;
77055;SDS011;67471;44.918;8.614;2023-07-29T10:59:03;6.10;;;2.78;;
77055;SDS011;67471;44.918;8.614;2023-07-29T11:02:28;6.60;;;3.00;;
77055;SDS011;67471;44.918;8.614;2023-07-29T11:05:43;5.90;;;3.38;;
77055;SDS011;67471;44.918;8.614;2023-07-29T11:08:54;5.20;;;3.05;;
77055;SDS011;67471;44.918;8.614;2023-07-29T11:12:03;4.95;;;2.95;;
77055;SDS011;67471;44.918;8.614;2023-07-29T11:18:12;5.60;;;2.85;;
77055;SDS011;67471;44.918;8.614;2023-07-29T11:21:18;6.07;;;2.95;;
77055;SDS011;67471;44.918;8.614;2023-07-29T11:24:21;6.13;;;2.92;;
77055;SDS011;67471;44.918;8.614;2023-07-29T11:27:25;5.25;;;3.10;;
77055;SDS011;67471;44.918;8.614;2023-07-29T11:30:30;5.45;;;2.88;;
77055;SDS011;67471;44.918;8.614;2023-07-29T11:33:34;8.02;;;3.13;;
77055;SDS011;67471;44.918;8.614;2023-07-29T11:36:38;6.65;;;3.35;;
77055;SDS011;67471;44.918;8.614;2023-07-29T11:39:42;5.75;;;2.75;;
77055;SDS011;67471;44.918;8.614;2023-07-29T11:42:46;5.15;;;2.55;;
77055;SDS011;67471;44.918;8.614;2023-07-29T11:45:51;7.10;;;3.30;;
77055;SDS011;67471;44.918;8.614;2023-07-29T11:48:55;5.70;;;2.75;;
77055;SDS011;67471;44.918;8.614;2023-07-29T11:51:58;5.43;;;2.83;;
77055;SDS011;67471;44.918;8.614;2023-07-29T11:55:03;6.30;;;2.72;;
77055;SDS011;67471;44.918;8.614;2023-07-29T11:58:08;3.88;;;2.50;;
77055;SDS011;67471;44.918;8.614;2023-07-29T12:01:13;4.80;;;2.58;;
77055;SDS011;67471;44.918;8.614;2023-07-29T12:04:16;6.78;;;2.80;;
77055;SDS011;67471;44.918;8.614;2023-07-29T12:07:20;4.93;;;2.47;;
77055;SDS011;67471;44.918;8.614;2023-07-29T12:10:24;4.63;;;2.80;;
77055;SDS011;67471;44.918;8.614;2023-07-29T12:13:28;7.38;;;3.00;;
77055;SDS011;67471;44.918;8.614;2023-07-29T12:16:39;3.90;;;2.70;;
77055;SDS011;67471;44.918;8.614;2023-07-29T12:19:44;4.75;;;2.72;;
77055;SDS011;67471;44.918;8.614;2023-07-29T12:22:57;5.18;;;3.20;;
77055;SDS011;67471;44.918;8.614;2023-07-29T12:26:04;4.25;;;2.95;;
77055;SDS011;67471;44.918;8.614;2023-07-29T12:29:11;4.10;;;2.97;;
77055;SDS011;67471;44.918;8.614;2023-07-29T12:32:16;4.55;;;2.92;;
77055;SDS011;67471;44.918;8.614;2023-07-29T12:35:20;5.03;;;2.92;;
77055;SDS011;67471;44.918;8.614;2023-07-29T12:38:27;5.32;;;2.67;;
77055;SDS011;67471;44.918;8.614;2023-07-29T12:41:31;7.00;;;2.58;;
77055;SDS011;67471;44.918;8.614;2023-07-29T12:44:38;7.55;;;3.10;;
77055;SDS011;67471;44.918;8.614;2023-07-29T12:47:41;3.97;;;2.63;;
77055;SDS011;67471;44.918;8.614;2023-07-29T12:50:45;7.85;;;3.22;;
77055;SDS011;67471;44.918;8.614;2023-07-29T12:53:49;6.72;;;2.80;;
77055;SDS011;67471;44.918;8.614;2023-07-29T12:56:53;4.10;;;2.72;;
77055;SDS011;67471;44.918;8.614;2023-07-29T13:00:01;4.23;;;2.50;;
77055;SDS011;67471;44.918;8.614;2023-07-29T13:03:05;4.72;;;2.78;;
77055;SDS011;67471;44.918;8.614;2023-07-29T13:06:09;5.85;;;2.55;;
77055;SDS011;67471;44.918;8.614;2023-07-29T13:09:13;5.47;;;2.83;;
77055;SDS011;67471;44.918;8.614;2023-07-29T13:12:17;4.68;;;3.10;;
77055;SDS011;67471;44.918;8.614;2023-07-29T13:15:21;5.15;;;2.60;;
77055;SDS011;67471;44.918;8.614;2023-07-29T13:18:24;5.53;;;2.78;;
77055;SDS011;67471;44.918;8.614;2023-07-29T13:21:28;5.22;;;3.17;;
77055;SDS011;67471;44.918;8.614;2023-07-29T13:24:32;6.03;;;3.30;;
77055;SDS011;67471;44.918;8.614;2023-07-29T13:27:36;5.65;;;2.30;;
77055;SDS011;67471;44.918;8.614;2023-07-29T13:30:43;4.07;;;2.40;;
77055;SDS011;67471;44.918;8.614;2023-07-29T13:33:46;5.65;;;2.72;;
77055;SDS011;67471;44.918;8.614;2023-07-29T13:36:50;5.72;;;2.92;;
77055;SDS011;67471;44.918;8.614;2023-07-29T13:39:54;5.15;;;3.20;;
77055;SDS011;67471;44.918;8.614;2023-07-29T13:42:57;7.22;;;2.60;;
77055;SDS011;67471;44.918;8.614;2023-07-29T13:46:01;4.28;;;2.85;;
77055;SDS011;67471;44.918;8.614;2023-07-29T13:49:07;4.75;;;2.88;;
77055;SDS011;67471;44.918;8.614;2023-07-29T13:52:11;7.22;;;3.78;;
77055;SDS011;67471;44.918;8.614;2023-07-29T13:55:17;4.10;;;2.80;;
77055;SDS011;67471;44.918;8.614;2023-07-29T13:58:21;5.88;;;2.95;;
77055;SDS011;67471;44.918;8.614;2023-07-29T14:01:25;4.88;;;2.90;;
77055;SDS011;67471;44.918;8.614;2023-07-29T14:04:29;5.40;;;3.00;;
77055;SDS011;67471;44.918;8.614;2023-07-29T14:07:33;5.45;;;3.00;;
77055;SDS011;67471;44.918;8.614;2023-07-29T14:10:37;4.47;;;2.75;;
77055;SDS011;67471;44.918;8.614;2023-07-29T14:13:40;5.93;;;3.10;;
77055;SDS011;67471;44.918;8.614;2023-07-29T14:16:44;5.13;;;2.60;;
77055;SDS011;67471;44.918;8.614;2023-07-29T14:19:48;7.10;;;3.33;;
77055;SDS011;67471;44.918;8.614;2023-07-29T14:22:54;8.75;;;2.97;;
77055;SDS011;67471;44.918;8.614;2023-07-29T14:25:58;5.20;;;2.88;;
77055;SDS011;67471;44.918;8.614;2023-07-29T14:29:03;4.93;;;2.92;;
77055;SDS011;67471;44.918;8.614;2023-07-29T14:32:06;4.57;;;2.80;;
77055;SDS011;67471;44.918;8.614;2023-07-29T14:35:10;7.03;;;3.22;;
77055;SDS011;67471;44.918;8.614;2023-07-29T14:38:14;5.72;;;3.10;;
77055;SDS011;67471;44.918;8.614;2023-07-29T14:41:18;4.10;;;2.63;;
77055;SDS011;67471;44.918;8.614;2023-07-29T14:44:25;4.18;;;2.55;;
77055;SDS011;67471;44.918;8.614;2023-07-29T14:47:28;7.75;;;3.05;;
77055;SDS011;67471;44.918;8.614;2023-07-29T14:50:37;6.45;;;2.90;;
77055;SDS011;67471;44.918;8.614;2023-07-29T14:53:41;6.32;;;2.72;;
77055;SDS011;67471;44.918;8.614;2023-07-29T14:56:45;10.55;;;2.72;;
77055;SDS011;67471;44.918;8.614;2023-07-29T14:59:49;3.40;;;2.25;;
77055;SDS011;67471;44.918;8.614;2023-07-29T15:02:53;5.55;;;2.67;;
77055;SDS011;67471;44.918;8.614;2023-07-29T15:05:56;6.72;;;2.45;;
77055;SDS011;67471;44.918;8.614;2023-07-29T15:09:02;5.15;;;3.10;;
77055;SDS011;67471;44.918;8.614;2023-07-29T15:12:06;7.28;;;2.85;;
77055;SDS011;67471;44.918;8.614;2023-07-29T15:15:11;5.18;;;3.13;;
77055;SDS011;67471;44.918;8.614;2023-07-29T15:18:15;6.07;;;2.80;;
77055;SDS011;67471;44.918;8.614;2023-07-29T15:21:18;4.07;;;2.50;;
77055;SDS011;67471;44.918;8.614;2023-07-29T15:24:22;5.05;;;2.90;;
77055;SDS011;67471;44.918;8.614;2023-07-29T15:27:29;4.90;;;2.72;;
77055;SDS011;67471;44.918;8.614;2023-07-29T15:30:35;6.80;;;3.13;;
77055;SDS011;67471;44.918;8.614;2023-07-29T15:33:40;6.13;;;3.10;;
77055;SDS011;67471;44.918;8.614;2023-07-29T15:36:44;4.60;;;2.72;;
77055;SDS011;67471;44.918;8.614;2023-07-29T15:39:50;4.22;;;3.25;;
77055;SDS011;67471;44.918;8.614;2023-07-29T15:42:54;7.35;;;3.22;;
77055;SDS011;67471;44.918;8.614;2023-07-29T15:45:58;5.85;;;3.13;;
77055;SDS011;67471;44.918;8.614;2023-07-29T15:49:02;6.60;;;3.15;;
77055;SDS011;67471;44.918;8.614;2023-07-29T15:52:05;5.35;;;3.00;;
77055;SDS011;67471;44.918;8.614;2023-07-29T15:55:11;6.05;;;3.20;;
77055;SDS011;67471;44.918;8.614;2023-07-29T15:58:15;5.30;;;3.05;;
77055;SDS011;67471;44.918;8.614;2023-07-29T16:01:19;5.38;;;3.20;;
77055;SDS011;67471;44.918;8.614;2023-07-29T16:04:23;6.18;;;3.60;;
77055;SDS011;67471;44.918;8.614;2023-07-29T16:07:26;5.93;;;3.22;;
77055;SDS011;67471;44.918;8.614;2023-07-29T16:10:30;5.75;;;3.00;;
77055;SDS011;67471;44.918;8.614;2023-07-29T16:13:34;6.22;;;3.42;;
77055;SDS011;67471;44.918;8.614;2023-07-29T16:16:38;8.50;;;3.40;;
77055;SDS011;67471;44.918;8.614;2023-07-29T16:19:55;8.10;;;3.30;;
77055;SDS011;67471;44.918;8.614;2023-07-29T16:23:00;5.60;;;3.50;;
77055;SDS011;67471;44.918;8.614;2023-07-29T16:26:03;5.53;;;2.90;;
77055;SDS011;67471;44.918;8.614;2023-07-29T16:29:07;6.50;;;3.47;;
77055;SDS011;67471;44.918;8.614;2023-07-29T16:32:11;6.38;;;3.83;;
77055;SDS011;67471;44.918;8.614;2023-07-29T16:35:16;6.18;;;3.55;;
77055;SDS011;67471;44.918;8.614;2023-07-29T16:38:19;6.82;;;3.85;;
77055;SDS011;67471;44.918;8.614;2023-07-29T16:41:23;5.63;;;3.05;;
77055;SDS011;67471;44.918;8.614;2023-07-29T16:44:27;6.35;;;3.15;;
77055;SDS011;67471;44.918;8.614;2023-07-29T16:47:31;5.78;;;3.20;;
77055;SDS011;67471;44.918;8.614;2023-07-29T16:50:35;8.70;;;3.22;;
77055;SDS011;67471;44.918;8.614;2023-07-29T16:53:40;5.10;;;3.28;;
77055;SDS011;67471;44.918;8.614;2023-07-29T16:56:44;6.28;;;3.47;;
77055;SDS011;67471;44.918;8.614;2023-07-29T16:59:50;6.53;;;3.40;;
77055;SDS011;67471;44.918;8.614;2023-07-29T17:02:53;7.88;;;3.85;;
77055;SDS011;67471;44.918;8.614;2023-07-29T17:05:57;5.50;;;3.10;;
77055;SDS011;67471;44.918;8.614;2023-07-29T17:09:01;6.03;;;3.28;;
77055;SDS011;67471;44.918;8.614;2023-07-29T17:12:05;10.15;;;3.55;;
77055;SDS011;67471;44.918;8.614;2023-07-29T17:15:09;5.80;;;3.20;;
77055;SDS011;67471;44.918;8.614;2023-07-29T17:18:16;7.93;;;3.50;;
77055;SDS011;67471;44.918;8.614;2023-07-29T17:21:19;6.53;;;3.55;;
77055;SDS011;67471;44.918;8.614;2023-07-29T17:24:23;6.97;;;3.72;;
77055;SDS011;67471;44.918;8.614;2023-07-29T17:27:28;6.43;;;3.35;;
77055;SDS011;67471;44.918;8.614;2023-07-29T17:30:31;6.45;;;3.35;;
77055;SDS011;67471;44.918;8.614;2023-07-29T17:33:35;5.78;;;3.53;;
77055;SDS011;67471;44.918;8.614;2023-07-29T17:36:39;7.13;;;3.50;;
77055;SDS011;67471;44.918;8.614;2023-07-29T17:39:45;6.97;;;3.40;;
77055;SDS011;67471;44.918;8.614;2023-07-29T17:42:49;6.10;;;4.05;;
77055;SDS011;67471;44.918;8.614;2023-07-29T17:45:53;8.55;;;3.75;;
77055;SDS011;67471;44.918;8.614;2023-07-29T17:48:57;5.57;;;3.60;;
77055;SDS011;67471;44.918;8.614;2023-07-29T17:52:01;6.68;;;3.70;;
77055;SDS011;67471;44.918;8.614;2023-07-29T17:55:06;5.50;;;3.75;;
77055;SDS011;67471;44.918;8.614;2023-07-29T17:58:10;7.28;;;3.83;;
77055;SDS011;67471;44.918;8.614;2023-07-29T18:01:15;5.10;;;3.65;;
77055;SDS011;67471;44.918;8.614;2023-07-29T18:04:19;6.65;;;3.80;;
77055;SDS011;67471;44.918;8.614;2023-07-29T18:07:23;6.57;;;3.70;;
77055;SDS011;67471;44.918;8.614;2023-07-29T18:10:27;9.50;;;3.90;;
77055;SDS011;67471;44.918;8.614;2023-07-29T18:13:30;5.63;;;3.65;;
77055;SDS011;67471;44.918;8.614;2023-07-29T18:16:34;5.47;;;4.25;;
77055;SDS011;67471;44.918;8.614;2023-07-29T18:19:41;7.03;;;4.00;;
77055;SDS011;67471;44.918;8.614;2023-07-29T18:22:47;5.72;;;3.85;;
77055;SDS011;67471;44.918;8.614;2023-07-29T18:25:51;6.75;;;4.43;;
77055;SDS011;67471;44.918;8.614;2023-07-29T18:28:59;8.68;;;4.25;;
77055;SDS011;67471;44.918;8.614;2023-07-29T18:32:03;8.20;;;3.95;;
77055;SDS011;67471;44.918;8.614;2023-07-29T18:35:08;7.75;;;3.75;;
77055;SDS011;67471;44.918;8.614;2023-07-29T18:38:12;9.15;;;3.88;;
77055;SDS011;67471;44.918;8.614;2023-07-29T18:41:16;5.90;;;3.50;;
77055;SDS011;67471;44.918;8.614;2023-07-29T18:44:19;5.47;;;3.75;;